createdAt,value
2022-11-17T00:10:21.298Z,11.74
2022-11-17T00:22:21.188Z,11.73
2022-11-17T00:34:21.295Z,11.71
2022-11-17T00:46:21.275Z,11.71
2022-11-17T00:58:21.284Z,11.70
2022-11-17T01:10:21.308Z,11.69
2022-11-17T01:22:21.191Z,11.67
2022-11-17T01:34:21.200Z,11.67
2022-11-17T01:46:21.285Z,11.66
2022-11-17T01:58:21.294Z,11.64
2022-11-17T02:10:21.244Z,11.63
2022-11-17T02:22:21.260Z,11.62
2022-11-17T02:34:21.192Z,11.61
2022-11-17T02:46:21.304Z,11.61
2022-11-17T02:58:21.275Z,11.59
2022-11-17T03:10:21.291Z,11.58
2022-11-17T03:22:21.296Z,11.57
2022-11-17T03:34:21.205Z,11.56
2022-11-17T03:46:21.222Z,11.54
2022-11-17T03:58:21.385Z,11.54
2022-11-17T04:10:21.205Z,11.53
2022-11-17T04:22:21.285Z,11.52
2022-11-17T04:34:21.196Z,11.51
2022-11-17T04:46:21.265Z,11.49
2022-11-17T04:58:21.279Z,11.49
2022-11-17T05:10:21.185Z,11.48
2022-11-17T05:22:21.405Z,11.47
2022-11-17T05:34:21.188Z,11.45
2022-11-17T05:46:21.191Z,11.45
2022-11-17T05:58:21.294Z,11.44
2022-11-17T06:10:21.194Z,11.43
2022-11-17T06:22:21.233Z,11.41
2022-11-17T06:34:21.248Z,11.41
2022-11-17T06:46:21.240Z,11.40
2022-11-17T06:58:21.186Z,11.39
2022-11-17T07:10:21.311Z,11.38
2022-11-17T07:22:21.286Z,11.37
2022-11-17T07:34:21.218Z,11.36
2022-11-17T07:46:21.197Z,11.34
2022-11-17T07:58:21.407Z,11.34
2022-11-17T08:10:21.191Z,11.34
2022-11-17T08:22:21.247Z,11.34
2022-11-17T08:34:21.291Z,11.34
2022-11-17T08:46:21.190Z,11.34
2022-11-17T08:58:21.198Z,11.34
2022-11-17T09:10:21.199Z,11.34
2022-11-17T09:22:21.187Z,11.35
2022-11-17T09:34:21.531Z,11.36
2022-11-17T09:46:21.190Z,11.39
2022-11-17T09:58:21.186Z,11.43
2022-11-17T10:10:21.187Z,11.40
2022-11-17T10:22:21.211Z,11.39
2022-11-17T10:34:24.340Z,11.38
2022-11-17T10:46:21.258Z,11.40
2022-11-17T10:58:21.183Z,11.40
2022-11-17T11:10:21.617Z,11.42
2022-11-17T11:22:21.688Z,11.41
2022-11-17T11:34:21.206Z,11.42
2022-11-17T11:46:21.200Z,11.42
2022-11-17T11:58:21.269Z,11.43
2022-11-17T12:10:21.193Z,11.44
2022-11-17T12:22:21.194Z,11.43
2022-11-17T12:34:21.191Z,11.43
2022-11-17T12:46:21.195Z,11.45
2022-11-17T12:58:21.307Z,11.45
2022-11-17T13:10:21.308Z,11.46
2022-11-17T13:22:21.195Z,11.52
2022-11-17T13:34:21.269Z,11.55
2022-11-17T13:46:21.251Z,11.53
2022-11-17T13:58:25.878Z,11.55
2022-11-17T14:10:21.270Z,11.53
2022-11-17T14:22:26.157Z,11.51
2022-11-17T14:34:21.197Z,11.51
2022-11-17T14:46:21.205Z,11.50
2022-11-17T14:58:21.281Z,11.50
2022-11-17T15:10:21.188Z,11.50
2022-11-17T15:22:21.631Z,11.49
2022-11-17T15:34:21.308Z,11.46
2022-11-17T15:46:21.314Z,11.47
2022-11-17T15:58:21.194Z,11.45
2022-11-17T16:10:21.253Z,11.43
2022-11-17T16:22:22.002Z,11.42
2022-11-17T16:34:21.194Z,11.41
2022-11-17T16:46:21.306Z,11.40
2022-11-17T16:58:21.250Z,11.38
2022-11-17T17:10:21.189Z,11.38
2022-11-17T17:22:21.280Z,11.36
2022-11-17T17:34:21.207Z,11.34
2022-11-17T17:46:21.274Z,11.34
2022-11-17T17:58:21.187Z,11.33
2022-11-17T18:10:21.290Z,11.31
2022-11-17T18:22:21.235Z,11.30
2022-11-17T18:34:21.312Z,11.29
2022-11-17T18:46:21.274Z,11.28
2022-11-17T18:58:21.199Z,11.27
2022-11-17T19:10:21.260Z,11.26
2022-11-17T19:22:21.297Z,11.24
2022-11-17T19:34:21.205Z,11.23
2022-11-17T19:46:21.199Z,11.22
2022-11-17T19:58:21.264Z,11.21
2022-11-17T20:10:21.196Z,11.18
2022-11-17T20:22:21.301Z,11.19
2022-11-17T20:34:21.197Z,11.17
2022-11-17T20:46:21.192Z,11.16
2022-11-17T20:58:21.193Z,11.15
2022-11-17T21:10:21.192Z,11.13
2022-11-17T21:22:21.191Z,11.12
2022-11-17T21:34:21.195Z,11.12
2022-11-17T21:46:21.192Z,11.11
2022-11-17T21:58:21.316Z,11.10
2022-11-17T22:10:21.275Z,11.09
2022-11-17T22:22:21.293Z,11.07
2022-11-17T22:34:21.200Z,11.07
2022-11-17T22:46:21.310Z,11.06
2022-11-17T22:58:21.245Z,11.05
2022-11-17T23:10:21.294Z,11.04
2022-11-17T23:22:21.190Z,11.04
2022-11-17T23:34:21.292Z,11.02
2022-11-17T23:46:21.200Z,11.02
2022-11-17T23:58:21.281Z,11.02
